createdAt,value
2023-04-05T00:00:48.270Z,2.65
2023-04-05T00:05:50.805Z,2.24
2023-04-05T00:10:54.361Z,2.49
2023-04-05T00:15:58.609Z,2.17
2023-04-05T00:21:01.257Z,2.38
2023-04-05T00:26:03.907Z,2.26
2023-04-05T00:31:06.750Z,2.31
2023-04-05T00:36:13.825Z,2.30
2023-04-05T00:41:16.604Z,2.33
2023-04-05T00:46:19.301Z,2.52
2023-04-05T00:51:21.707Z,2.55
2023-04-05T00:56:25.424Z,2.32
2023-04-05T01:01:29.393Z,2.37
2023-04-05T01:06:42.636Z,2.34
2023-04-05T01:11:47.846Z,2.35
2023-04-05T01:16:50.198Z,2.40
2023-04-05T01:21:58.560Z,2.34
2023-04-05T01:27:39.036Z,2.01
2023-04-05T01:32:54.916Z,2.26
2023-04-05T01:38:02.866Z,2.20
2023-04-05T01:43:14.515Z,2.34
2023-04-05T01:48:17.372Z,2.37
2023-04-05T01:53:19.751Z,2.19
2023-04-05T01:58:22.103Z,2.40
2023-04-05T02:03:25.230Z,2.04
2023-04-05T02:08:28.804Z,2.22
2023-04-05T02:13:31.081Z,2.04
2023-04-05T02:18:33.390Z,2.03
2023-04-05T02:23:36.944Z,1.65
2023-04-05T02:28:39.553Z,1.63
2023-04-05T02:33:41.710Z,1.83
2023-04-05T02:38:44.130Z,1.94
2023-04-05T02:43:46.698Z,2.06
2023-04-05T02:48:48.940Z,1.81
2023-04-05T02:53:53.363Z,1.68
2023-04-05T02:58:55.884Z,1.58
2023-04-05T03:04:00.732Z,1.67
2023-04-05T03:09:05.083Z,1.77
2023-04-05T03:14:07.673Z,1.75
2023-04-05T03:19:19.067Z,1.78
2023-04-05T03:24:22.411Z,1.71
2023-04-05T03:29:24.752Z,1.67
2023-04-05T03:34:31.028Z,1.72
2023-04-05T03:39:39.298Z,1.90
2023-04-05T03:44:41.829Z,1.98
2023-04-05T03:49:44.458Z,1.78
2023-04-05T03:54:46.725Z,1.75
2023-04-05T03:59:53.744Z,1.63
2023-04-05T04:04:56.386Z,1.65
2023-04-05T04:09:58.975Z,1.75
2023-04-05T04:15:01.970Z,1.85
2023-04-05T04:20:27.227Z,2.00
2023-04-05T04:26:02.167Z,1.82
2023-04-05T04:31:40.125Z,1.95
2023-04-05T04:37:02.871Z,1.82
2023-04-05T04:42:24.300Z,1.72
2023-04-05T04:48:03.723Z,1.70
2023-04-05T04:53:24.334Z,2.12
2023-04-05T04:58:26.960Z,2.13
2023-04-05T05:03:39.148Z,2.42
2023-04-05T05:08:41.387Z,2.28
2023-04-05T05:13:43.744Z,2.65
2023-04-05T05:18:53.771Z,2.35
2023-04-05T05:23:58.513Z,2.75
2023-04-05T05:29:04.638Z,2.64
2023-04-05T05:34:10.643Z,2.72
2023-04-05T05:39:16.276Z,2.93
2023-04-05T05:44:18.979Z,3.29
2023-04-05T05:49:21.267Z,3.59
2023-04-05T05:54:23.487Z,2.83
2023-04-05T05:59:26.087Z,3.72
2023-04-05T06:04:29.517Z,3.98
2023-04-05T06:09:34.296Z,4.25
2023-04-05T06:14:36.583Z,4.37
2023-04-05T06:19:38.935Z,4.14
2023-04-05T06:24:41.225Z,4.44
2023-04-05T06:29:43.695Z,4.17
2023-04-05T06:34:49.195Z,4.50
2023-04-05T06:39:51.504Z,4.46
2023-04-05T06:44:54.035Z,4.36
2023-04-05T06:49:56.387Z,4.43
2023-04-05T06:54:59.032Z,4.38
2023-04-05T07:00:01.395Z,4.25
2023-04-05T07:05:06.264Z,4.69
2023-04-05T07:10:09.441Z,5.01
2023-04-05T07:15:13.540Z,4.32
2023-04-05T07:20:16.627Z,5.02
2023-04-05T07:25:19.557Z,5.69
2023-04-05T07:30:21.827Z,5.69
2023-04-05T07:35:24.330Z,5.56
2023-04-05T07:40:26.547Z,5.32
2023-04-05T07:45:29.222Z,5.49
2023-04-05T07:50:32.215Z,4.95
2023-04-05T07:55:34.952Z,4.78
2023-04-05T08:00:38.092Z,4.92
2023-04-05T08:05:40.590Z,5.16
2023-04-05T08:10:43.292Z,5.55
2023-04-05T08:15:45.982Z,5.65
2023-04-05T08:20:55.490Z,5.67
2023-04-05T08:25:57.984Z,5.68
2023-04-05T08:31:00.434Z,5.84
2023-04-05T08:36:10.349Z,5.84
2023-04-05T08:41:19.398Z,6.43
2023-04-05T08:46:22.992Z,6.49
2023-04-05T08:51:29.032Z,6.28
2023-04-05T08:56:36.609Z,6.27
2023-04-05T09:01:49.583Z,6.06
2023-04-05T09:06:55.955Z,6.15
2023-04-05T09:11:58.734Z,5.61
2023-04-05T09:17:03.901Z,5.79
2023-04-05T09:22:08.558Z,6.27
2023-04-05T09:27:16.573Z,6.76
2023-04-05T09:32:27.994Z,6.42
2023-04-05T09:37:30.575Z,6.40
2023-04-05T09:42:46.129Z,7.12
2023-04-05T09:47:57.938Z,6.86
2023-04-05T09:53:10.906Z,6.29
2023-04-05T09:58:14.385Z,6.25
2023-04-05T10:03:17.323Z,6.52
2023-04-05T10:08:19.819Z,6.86
2023-04-05T10:13:22.702Z,6.82
2023-04-05T10:18:39.336Z,6.89
2023-04-05T10:23:46.802Z,7.01
2023-04-05T10:28:58.325Z,7.09
2023-04-05T10:34:10.696Z,6.76
2023-04-05T10:39:35.040Z,6.29
2023-04-05T10:44:39.765Z,6.45
2023-04-05T10:49:49.464Z,6.24
2023-04-05T10:54:57.195Z,7.03
2023-04-05T11:00:00.894Z,7.01
2023-04-05T11:05:07.091Z,7.43
2023-04-05T11:10:19.523Z,7.48
2023-04-05T11:15:28.129Z,7.57
2023-04-05T11:20:53.564Z,7.52
2023-04-05T11:26:04.119Z,7.65
2023-04-05T11:31:15.952Z,7.83
2023-04-05T11:36:53.841Z,8.00
2023-04-05T11:42:01.253Z,7.36
2023-04-05T11:47:04.766Z,7.07
2023-04-05T11:52:12.458Z,7.52
2023-04-05T11:57:23.389Z,7.27
2023-04-05T12:02:30.016Z,7.21
2023-04-05T12:07:37.243Z,7.69
2023-04-05T12:12:42.420Z,8.23
2023-04-05T12:17:54.912Z,8.54
2023-04-05T12:22:57.981Z,8.46
2023-04-05T12:28:08.648Z,8.19
2023-04-05T12:33:11.126Z,8.37
2023-04-05T12:38:16.137Z,8.17
2023-04-05T12:43:20.438Z,7.86
2023-04-05T12:48:26.176Z,8.04
2023-04-05T12:53:28.945Z,7.75
2023-04-05T12:58:36.289Z,7.73
2023-04-05T13:03:39.285Z,7.66
2023-04-05T13:08:41.691Z,7.68
2023-04-05T13:13:44.076Z,7.21
2023-04-05T13:18:46.352Z,6.92
2023-04-05T13:23:48.864Z,6.95
2023-04-05T13:28:51.276Z,7.06
2023-04-05T13:33:54.139Z,6.94
2023-04-05T13:38:56.624Z,7.04
2023-04-05T13:44:01.105Z,6.72
2023-04-05T13:49:04.297Z,6.15
2023-04-05T13:54:06.906Z,6.18
2023-04-05T13:59:09.345Z,6.40
2023-04-05T14:04:11.896Z,6.22
2023-04-05T14:09:14.314Z,6.41
2023-04-05T14:14:34.918Z,6.25
2023-04-05T14:19:40.528Z,6.46
2023-04-05T14:24:51.554Z,6.41
2023-04-05T14:29:57.414Z,6.25
2023-04-05T14:35:00.345Z,6.25
2023-04-05T14:40:02.738Z,6.35
2023-04-05T14:45:05.647Z,6.34
2023-04-05T14:50:08.568Z,6.43
2023-04-05T14:55:13.690Z,6.31
2023-04-05T15:00:16.793Z,6.39
2023-04-05T15:05:19.869Z,6.47
2023-04-05T15:10:22.317Z,6.27
2023-04-05T15:15:24.703Z,6.23
2023-04-05T15:20:27.357Z,6.08
2023-04-05T15:25:29.873Z,5.75
2023-04-05T15:30:33.773Z,5.90
2023-04-05T15:35:36.901Z,5.80
2023-04-05T15:40:40.499Z,5.86
2023-04-05T15:45:43.040Z,5.88
2023-04-05T15:50:45.963Z,5.92
2023-04-05T15:55:48.541Z,5.53
2023-04-05T16:00:50.960Z,5.52
2023-04-05T16:05:53.384Z,5.39
2023-04-05T16:10:59.277Z,5.36
2023-04-05T16:16:01.791Z,5.50
2023-04-05T16:21:04.145Z,5.48
2023-04-05T16:26:06.464Z,5.70
2023-04-05T16:31:08.977Z,5.57
2023-04-05T16:36:11.680Z,5.62
2023-04-05T16:41:15.017Z,5.41
2023-04-05T16:46:17.875Z,5.53
2023-04-05T16:51:20.684Z,5.31
2023-04-05T16:56:24.635Z,5.32
2023-04-05T17:01:27.934Z,4.82
2023-04-05T17:06:30.328Z,4.93
2023-04-05T17:11:32.741Z,4.69
2023-04-05T17:16:35.524Z,4.71
2023-04-05T17:21:37.887Z,4.74
2023-04-05T17:26:40.362Z,4.46
2023-04-05T17:31:45.363Z,4.13
2023-04-05T17:36:48.001Z,4.22
2023-04-05T17:41:51.252Z,4.12
2023-04-05T17:47:01.682Z,3.75
2023-04-05T17:52:13.204Z,4.04
2023-04-05T17:57:15.994Z,3.90
2023-04-05T18:02:18.602Z,3.58
2023-04-05T18:07:21.346Z,3.90
2023-04-05T18:12:23.908Z,3.83
2023-04-05T18:17:26.515Z,4.02
2023-04-05T18:22:33.128Z,3.86
2023-04-05T18:27:35.938Z,3.56
2023-04-05T18:32:40.477Z,3.39
2023-04-05T18:37:42.897Z,3.21
2023-04-05T18:42:45.732Z,3.30
2023-04-05T18:47:49.292Z,3.37
2023-04-05T18:53:12.643Z,3.28
2023-04-05T18:58:20.639Z,3.32
2023-04-05T19:03:28.574Z,3.02
2023-04-05T19:14:14.394Z,3.00
2023-04-05T19:19:25.968Z,3.25
2023-04-05T19:24:34.659Z,2.78
2023-04-05T19:30:10.144Z,3.25
2023-04-05T19:35:16.452Z,3.09
2023-04-05T19:40:23.320Z,3.29
2023-04-05T19:45:41.099Z,2.95
2023-04-05T19:51:10.703Z,3.06
2023-04-05T19:56:39.579Z,2.81
2023-04-05T20:01:45.555Z,2.83
2023-04-05T20:07:07.114Z,3.17
2023-04-05T20:12:25.384Z,3.20
2023-04-05T20:17:31.990Z,2.93
2023-04-05T20:22:41.465Z,3.12
2023-04-05T20:27:54.870Z,3.22
2023-04-05T20:33:36.938Z,2.92
2023-04-05T20:38:51.016Z,3.00
2023-04-05T20:44:02.817Z,3.21
2023-04-05T20:49:08.024Z,2.86
2023-04-05T20:54:24.191Z,3.11
2023-04-05T20:59:39.223Z,2.86
2023-04-05T21:10:15.215Z,2.94
2023-04-05T21:15:34.985Z,3.17
2023-04-05T21:20:44.796Z,2.83
2023-04-05T21:25:50.875Z,3.25
2023-04-05T21:31:05.258Z,3.11
2023-04-05T21:36:07.878Z,2.68
2023-04-05T21:41:23.358Z,2.68
2023-04-05T21:46:28.123Z,2.79
2023-04-05T21:51:45.547Z,2.67
2023-04-05T21:56:55.495Z,2.60
2023-04-05T22:07:34.132Z,1.96
2023-04-05T22:18:15.041Z,2.71
2023-04-05T22:23:17.726Z,2.54
2023-04-05T22:28:47.059Z,2.41
2023-04-05T22:33:52.052Z,2.31
2023-04-05T22:39:08.225Z,2.05
2023-04-05T22:44:29.476Z,1.89
2023-04-05T22:50:04.739Z,2.47
2023-04-05T22:55:15.911Z,2.32
2023-04-05T23:00:20.949Z,2.04
2023-04-05T23:05:27.024Z,2.24
2023-04-05T23:10:29.621Z,2.25
2023-04-05T23:15:38.709Z,2.31
2023-04-05T23:20:47.035Z,2.52
2023-04-05T23:25:53.766Z,2.20
2023-04-05T23:31:01.629Z,2.47
2023-04-05T23:36:04.667Z,2.49
2023-04-05T23:41:11.541Z,2.74
2023-04-05T23:46:18.869Z,2.91
2023-04-05T23:51:46.584Z,2.77
2023-04-05T23:56:54.999Z,2.66
